Time;durP1;ratioP1;P1;durP2;ratioP2;P2;SDS_P1;SDS_P2;PMS_P1;PMS_P2;Temp;Humidity;BMP_temperature;BMP_pressure;BME280_temperature;BME280_humidity;BME280_pressure;Samples;Min_cycle;Max_cycle;Signal;HPM_P1;HPM_P2
2024/04/10 00:01:16;;;;;;;538.17;102.63;;;14.10;35.00;;;;;;5306360;26;20049;-62
2024/04/10 00:03:47;;;;;;;702.42;173.25;;;14.10;35.10;;;;;;5306291;26;20005;-62
2024/04/10 00:06:15;;;;;;;511.92;91.72;;;14.10;35.30;;;;;;5311488;26;20024;-64
2024/04/10 00:08:49;;;;;;;492.55;88.18;;;14.10;35.20;;;;;;5320878;26;20094;-63
2024/04/10 00:11:21;;;;;;;487.77;86.35;;;14.00;35.20;;;;;;5322800;26;20032;-63
2024/04/10 00:13:52;;;;;;;518.70;104.13;;;14.00;35.30;;;;;;5299556;26;19998;-62
2024/04/10 00:16:20;;;;;;;489.60;90.97;;;14.00;35.50;;;;;;5319180;26;20001;-61
2024/04/10 00:18:50;;;;;;;504.70;92.20;;;14.00;35.40;;;;;;5313526;26;20062;-61
2024/04/10 00:21:18;;;;;;;519.55;96.93;;;14.00;35.50;;;;;;5329199;26;20079;-62
2024/04/10 00:23:52;;;;;;;637.17;145.55;;;14.00;35.50;;;;;;5306694;26;20604;-63
2024/04/10 00:26:20;;;;;;;495.65;91.20;;;14.00;35.50;;;;;;5322403;26;20019;-63
2024/04/10 00:28:50;;;;;;;480.52;84.25;;;14.00;36.30;;;;;;5314265;26;20331;-63
2024/04/10 00:31:19;;;;;;;494.02;90.80;;;14.00;35.50;;;;;;5317817;26;20019;-63
2024/04/10 00:33:49;;;;;;;649.08;150.90;;;14.10;35.60;;;;;;5304181;26;20684;-63
2024/04/10 00:36:18;;;;;;;493.38;88.60;;;14.10;35.60;;;;;;5319286;26;20001;-63
2024/04/10 00:38:51;;;;;;;487.27;86.18;;;14.10;35.60;;;;;;5310337;26;20055;-63
2024/04/10 00:41:19;;;;;;;476.42;83.03;;;14.20;35.70;;;;;;5310807;26;20005;-63
2024/04/10 00:43:50;;;;;;;572.97;124.43;;;14.30;35.70;;;;;;5311039;26;20152;-63
2024/04/10 00:46:21;;;;;;;497.45;89.07;;;14.30;35.60;;;;;;5358286;26;20002;-63
2024/04/10 00:48:53;;;;;;;503.42;89.60;;;14.30;35.60;;;;;;5300250;26;20013;-65
2024/04/10 00:51:23;;;;;;;488.30;86.57;;;14.40;35.60;;;;;;5320415;26;20004;-62
2024/04/10 00:53:57;;;;;;;514.70;109.32;;;14.40;35.70;;;;;;5308840;26;20008;-63
2024/04/10 00:56:25;;;;;;;484.40;85.55;;;14.50;35.70;;;;;;5315904;26;20537;-64
2024/04/10 00:59:00;;;;;;;502.10;88.68;;;14.60;35.60;;;;;;5320763;26;20466;-63
2024/04/10 01:01:28;;;;;;;485.85;87.10;;;14.70;35.60;;;;;;5318617;26;20510;-61
2024/04/10 01:03:59;;;;;;;506.13;92.32;;;14.80;35.60;;;;;;5307885;26;20339;-63
2024/04/10 01:06:29;;;;;;;488.50;86.05;;;14.90;35.50;;;;;;5317733;26;20013;-63
2024/04/10 01:09:02;;;;;;;484.00;85.00;;;15.00;35.50;;;;;;5303176;26;20087;-62
2024/04/10 01:11:31;;;;;;;549.33;105.53;;;15.00;35.30;;;;;;5316682;26;20841;-63
2024/04/10 01:14:02;;;;;;;567.85;111.65;;;15.10;35.70;;;;;;5321630;26;20015;-61
2024/04/10 01:16:32;;;;;;;490.98;96.70;;;15.10;35.30;;;;;;5315556;26;20001;-62
2024/04/10 01:19:03;;;;;;;502.77;91.00;;;15.10;35.30;;;;;;5312681;26;20087;-62
2024/04/10 01:21:32;;;;;;;553.42;109.68;;;15.10;35.20;;;;;;5319017;26;20004;-61
2024/04/10 01:24:05;;;;;;;494.60;88.63;;;15.00;35.30;;;;;;5320094;26;20611;-63
2024/04/10 01:26:33;;;;;;;509.58;90.75;;;15.00;36.00;;;;;;5313357;26;21026;-62
2024/04/10 01:29:04;;;;;;;491.90;87.70;;;14.90;35.30;;;;;;5313877;26;20016;-63
2024/04/10 01:31:33;;;;;;;622.72;129.48;;;14.80;35.40;;;;;;5294603;26;20051;-63
2024/04/10 01:34:03;;;;;;;487.70;86.32;;;14.70;35.50;;;;;;5317039;26;20005;-62
2024/04/10 01:36:32;;;;;;;493.80;89.05;;;14.70;35.60;;;;;;5313692;26;20008;-61
2024/04/10 01:39:06;;;;;;;508.58;90.85;;;14.60;35.80;;;;;;5313877;26;19997;-63
2024/04/10 01:42:53;;;;;;;476.95;82.47;;;14.50;35.80;;;;;;5533795;25;20734;-62
2024/04/10 01:45:21;;;;;;;478.23;83.25;;;14.40;35.70;;;;;;5512378;25;19993;-63
2024/04/10 01:47:53;;;;;;;564.03;120.40;;;14.30;35.80;;;;;;5508448;25;20029;-63
2024/04/10 01:50:22;;;;;;;506.13;90.03;;;14.30;35.90;;;;;;5524634;25;20003;-63
2024/04/10 01:52:52;;;;;;;479.13;82.63;;;14.20;35.90;;;;;;5502493;25;20033;-64
2024/04/10 01:55:24;;;;;;;508.67;89.10;;;14.20;36.00;;;;;;5517721;25;20021;-62
2024/04/10 01:57:57;;;;;;;504.00;101.80;;;14.10;36.20;;;;;;5477547;25;20025;-61
2024/04/10 02:00:25;;;;;;;486.25;84.63;;;14.10;36.10;;;;;;5465770;25;20006;-62
2024/04/10 02:02:56;;;;;;;496.58;87.70;;;14.00;36.10;;;;;;5469672;25;20010;-62
2024/04/10 02:05:25;;;;;;;491.10;86.38;;;14.00;36.20;;;;;;5461185;25;20006;-65
2024/04/10 02:07:56;;;;;;;470.13;81.57;;;13.90;36.30;;;;;;5462709;25;20086;-60
2024/04/10 02:10:24;;;;;;;526.38;94.85;;;13.80;36.30;;;;;;5476565;25;20013;-61
2024/04/10 02:12:57;;;;;;;494.85;86.25;;;13.70;36.40;;;;;;5479441;25;20493;-60
2024/04/10 02:15:25;;;;;;;493.10;94.95;;;13.70;36.50;;;;;;5474791;25;20002;-60
2024/04/10 02:17:56;;;;;;;497.63;105.03;;;13.60;36.50;;;;;;5431258;25;20002;-59
2024/04/10 02:20:24;;;;;;;479.23;83.07;;;13.60;36.60;;;;;;5435414;26;20003;-61
2024/04/10 02:22:55;;;;;;;480.65;84.38;;;13.60;36.80;;;;;;5471886;25;20493;-61
2024/04/10 02:25:24;;;;;;;477.83;83.22;;;13.60;36.80;;;;;;5485293;25;20078;-62
2024/04/10 02:27:58;;;;;;;497.67;87.45;;;13.50;36.80;;;;;;5450990;25;19994;-63
2024/04/10 02:30:28;;;;;;;496.90;85.50;;;13.50;36.80;;;;;;5477759;25;20078;-62
2024/04/10 02:32:56;;;;;;;476.30;80.82;;;13.50;36.80;;;;;;5474537;25;20539;-63
2024/04/10 02:35:27;;;;;;;507.65;88.35;;;13.50;36.90;;;;;;5481305;25;20005;-63
2024/04/10 02:37:56;;;;;;;483.25;82.38;;;13.50;36.90;;;;;;5479921;25;20054;-63
2024/04/10 02:40:29;;;;;;;504.50;87.63;;;13.50;36.80;;;;;;5484926;25;20078;-64
2024/04/10 02:43:08;;;;;;;487.55;81.85;;;13.50;36.90;;;;;;5471849;25;20333;-66
2024/04/10 02:45:42;;;;;;;657.15;148.75;;;13.40;37.50;;;;;;5475575;25;20744;-64
2024/04/10 02:48:11;;;;;;;509.92;87.82;;;13.40;37.30;;;;;;5453771;26;19998;-64
2024/04/10 02:50:42;;;;;;;479.73;80.85;;;13.30;37.80;;;;;;5453871;26;20006;-65
2024/04/10 02:53:10;;;;;;;486.20;82.05;;;13.30;38.00;;;;;;5475002;25;20008;-63
2024/04/10 02:55:44;;;;;;;678.10;146.52;;;13.30;37.90;;;;;;5423709;26;20166;-66
2024/04/10 02:58:16;;;;;;;489.73;91.00;;;13.30;38.00;;;;;;5468733;26;20001;-64
2024/04/10 03:00:47;;;;;;;491.23;81.57;;;13.30;38.20;;;;;;5468451;26;20062;-66
2024/04/10 03:03:15;;;;;;;489.42;81.47;;;13.20;38.30;;;;;;5432914;26;19998;-68
2024/04/10 03:05:47;;;;;;;675.53;156.95;;;13.20;38.40;;;;;;5454547;25;20379;-68
2024/04/10 03:08:16;;;;;;;502.00;84.97;;;13.20;38.50;;;;;;5432796;26;20037;-69
2024/04/10 03:10:47;;;;;;;487.10;80.85;;;13.30;38.60;;;;;;5470020;26;20066;-69
2024/04/10 03:13:17;;;;;;;478.60;78.70;;;13.20;38.70;;;;;;5459389;25;20035;-71
2024/04/10 03:15:48;;;;;;;669.38;153.90;;;13.30;38.80;;;;;;5420408;26;20076;-71
2024/04/10 03:18:17;;;;;;;517.50;88.65;;;13.30;38.80;;;;;;5456150;26;20057;-72
2024/04/10 03:20:48;;;;;;;657.00;136.18;;;13.30;38.80;;;;;;5422398;26;20007;-72
2024/04/10 03:23:16;;;;;;;499.20;83.32;;;13.30;38.80;;;;;;5442346;26;20747;-72
2024/04/10 03:25:47;;;;;;;677.08;157.20;;;13.30;38.90;;;;;;5460068;26;20010;-73
2024/04/10 03:28:18;;;;;;;512.38;91.03;;;13.30;38.90;;;;;;5456273;25;20014;-74
2024/04/10 03:30:54;;;;;;;498.20;87.15;;;13.20;39.00;;;;;;5455952;26;20337;-74
2024/04/10 03:33:24;;;;;;;482.90;80.72;;;13.10;39.00;;;;;;5479792;25;19998;-74
2024/04/10 03:35:56;;;;;;;476.50;77.35;;;13.10;39.20;;;;;;5465391;26;20002;-74
2024/04/10 03:38:24;;;;;;;523.70;91.82;;;13.00;39.30;;;;;;5462648;26;20091;-73
2024/04/10 03:40:55;;;;;;;482.73;94.82;;;13.00;39.60;;;;;;5429781;26;20039;-76
2024/04/10 03:43:29;;;;;;;484.80;83.60;;;13.00;39.60;;;;;;5428681;26;20014;-74
2024/04/10 03:46:02;;;;;;;493.13;81.65;;;13.00;39.70;;;;;;5424521;26;19999;-73
2024/04/10 03:48:33;;;;;;;527.10;93.03;;;13.00;39.70;;;;;;5417650;26;20007;-74
2024/04/10 03:51:05;;;;;;;506.00;84.78;;;12.90;39.80;;;;;;5424416;26;20006;-74
2024/04/10 03:53:34;;;;;;;631.75;128.82;;;13.00;40.00;;;;;;5395918;26;20975;-73
2024/04/10 03:56:05;;;;;;;471.60;77.22;;;13.00;39.90;;;;;;5419813;26;20003;-76
2024/04/10 03:58:39;;;;;;;494.88;82.43;;;12.90;39.80;;;;;;5424072;26;19998;-75
2024/04/10 04:01:07;;;;;;;495.05;82.63;;;12.90;39.70;;;;;;5432800;25;20014;-74
2024/04/10 04:03:38;;;;;;;688.25;164.80;;;12.90;39.70;;;;;;5427679;25;20014;-75
2024/04/10 04:06:07;;;;;;;516.55;89.03;;;12.90;39.80;;;;;;5430339;25;20013;-75
2024/04/10 04:08:38;;;;;;;538.75;114.38;;;12.80;39.80;;;;;;5419176;26;20013;-75
2024/04/10 04:11:07;;;;;;;485.08;80.13;;;12.80;39.80;;;;;;5426210;26;19998;-73
2024/04/10 04:13:41;;;;;;;712.30;173.32;;;12.80;39.90;;;;;;5428547;25;20567;-74
2024/04/10 04:16:09;;;;;;;480.10;78.50;;;12.80;40.00;;;;;;5424496;25;19999;-75
2024/04/10 04:18:40;;;;;;;500.55;82.90;;;12.80;40.00;;;;;;5414377;25;19999;-76
2024/04/10 04:21:09;;;;;;;491.52;82.60;;;12.90;40.10;;;;;;5420442;26;20004;-77
2024/04/10 04:23:39;;;;;;;672.05;153.50;;;12.90;40.10;;;;;;5413292;26;19999;-77
2024/04/10 04:26:08;;;;;;;493.52;82.60;;;12.90;40.10;;;;;;5431076;26;20461;-79
2024/04/10 04:28:41;;;;;;;504.23;84.95;;;12.90;40.20;;;;;;5425916;26;20024;-77
2024/04/10 04:31:12;;;;;;;504.85;83.90;;;12.90;40.20;;;;;;5460264;26;19999;-76
2024/04/10 04:33:43;;;;;;;801.00;174.20;;;12.90;40.20;;;;;;5450207;26;20341;-75
2024/04/10 04:36:12;;;;;;;485.48;80.40;;;12.90;40.20;;;;;;5424648;26;20003;-73
2024/04/10 04:38:42;;;;;;;494.75;82.60;;;12.80;40.10;;;;;;5426611;26;20003;-73
2024/04/10 04:41:11;;;;;;;503.52;83.85;;;12.80;40.30;;;;;;5417896;26;20485;-73
2024/04/10 04:43:44;;;;;;;689.97;149.80;;;12.80;40.40;;;;;;5424543;26;21773;-74
2024/04/10 04:46:17;;;;;;;478.00;78.30;;;12.80;40.40;;;;;;5407902;26;19998;-72
2024/04/10 04:48:48;;;;;;;521.92;88.38;;;12.80;40.50;;;;;;5408275;26;20011;-71
2024/04/10 04:51:16;;;;;;;496.17;83.68;;;12.80;40.60;;;;;;5420381;26;19998;-72
2024/04/10 04:53:47;;;;;;;723.35;162.05;;;12.80;40.60;;;;;;5412394;25;19998;-72
2024/04/10 04:56:15;;;;;;;525.45;89.07;;;12.80;40.60;;;;;;5419013;26;20362;-73
2024/04/10 04:58:48;;;;;;;514.85;87.70;;;12.80;40.60;;;;;;5425951;25;20011;-73
2024/04/10 05:01:16;;;;;;;502.30;83.47;;;12.80;40.60;;;;;;5417034;25;20529;-73
2024/04/10 05:06:34;;;;;;;509.48;87.32;;;12.70;40.70;;;;;;5418092;25;20048;-72
2024/04/10 05:09:09;;;;;;;531.40;90.35;;;12.80;40.90;;;;;;5413046;26;20014;-72
2024/04/10 05:11:38;;;;;;;726.45;164.20;;;12.80;40.90;;;;;;5406299;26;20791;-72
2024/04/10 05:14:12;;;;;;;506.45;85.43;;;12.90;40.90;;;;;;5450275;26;19998;-70
2024/04/10 05:16:40;;;;;;;529.22;91.60;;;12.90;40.90;;;;;;5414738;25;20004;-73
2024/04/10 05:19:11;;;;;;;514.92;86.10;;;12.90;40.90;;;;;;5411900;26;20013;-74
2024/04/10 05:21:39;;;;;;;688.60;147.55;;;12.90;40.90;;;;;;5405346;26;20008;-73
2024/04/10 05:24:10;;;;;;;481.25;79.82;;;12.90;41.00;;;;;;5422164;25;20002;-72
2024/04/10 05:26:38;;;;;;;502.67;83.82;;;12.80;41.10;;;;;;5422550;25;20006;-74
2024/04/10 05:29:12;;;;;;;513.90;85.68;;;12.80;41.10;;;;;;5407892;26;20014;-72
2024/04/10 05:31:40;;;;;;;689.28;156.00;;;12.70;41.00;;;;;;5408441;25;20102;-70
2024/04/10 05:34:13;;;;;;;536.78;95.38;;;12.60;41.10;;;;;;5414910;25;20043;-65
2024/04/10 05:36:41;;;;;;;510.58;86.80;;;12.60;41.30;;;;;;5411103;26;20015;-64
2024/04/10 05:39:19;;;;;;;510.58;88.95;;;12.50;41.30;;;;;;5403319;25;21123;-64
2024/04/10 05:41:47;;;;;;;621.30;127.68;;;12.40;41.40;;;;;;5404821;26;20065;-68
2024/04/10 05:44:21;;;;;;;534.22;94.50;;;12.40;42.00;;;;;;5438266;26;20056;-67
2024/04/10 05:46:49;;;;;;;528.15;90.70;;;12.30;42.10;;;;;;5416586;26;20072;-67
2024/04/10 05:49:20;;;;;;;488.85;81.40;;;12.40;41.70;;;;;;5426713;26;20013;-68
2024/04/10 05:51:48;;;;;;;504.85;100.40;;;12.30;41.70;;;;;;5419338;26;19999;-66
2024/04/10 05:54:19;;;;;;;491.58;83.53;;;12.40;41.70;;;;;;5429665;26;20006;-68
2024/04/10 05:56:48;;;;;;;482.08;80.82;;;12.40;41.70;;;;;;5427787;26;20006;-67
2024/04/10 05:59:21;;;;;;;500.70;83.28;;;12.50;42.20;;;;;;5423953;26;20002;-68
2024/04/10 06:01:50;;;;;;;525.58;101.53;;;12.50;42.20;;;;;;5420872;26;20188;-68
2024/04/10 06:04:20;;;;;;;489.15;80.72;;;12.50;41.80;;;;;;5425204;26;20014;-70
2024/04/10 06:06:49;;;;;;;497.10;83.20;;;12.40;41.90;;;;;;5425657;26;19999;-70
2024/04/10 06:09:19;;;;;;;484.75;80.25;;;12.40;42.00;;;;;;5421024;25;20038;-70
2024/04/10 06:11:48;;;;;;;571.33;117.10;;;12.30;42.70;;;;;;5419875;25;20013;-70
2024/04/10 06:14:21;;;;;;;515.60;86.78;;;12.30;42.10;;;;;;5425852;26;19999;-71
2024/04/10 06:16:50;;;;;;;495.40;83.15;;;12.30;42.30;;;;;;5417755;26;20010;-70
2024/04/10 06:19:21;;;;;;;513.15;87.85;;;12.30;42.20;;;;;;5421055;26;20007;-69
2024/04/10 06:21:49;;;;;;;500.08;88.13;;;12.30;42.30;;;;;;5409549;26;20003;-69
2024/04/10 06:24:21;;;;;;;518.53;89.13;;;12.40;42.30;;;;;;5416148;26;20724;-70
2024/04/10 06:26:51;;;;;;;484.88;83.57;;;12.40;42.30;;;;;;5444173;26;20003;-71
2024/04/10 06:29:24;;;;;;;479.77;79.78;;;12.50;42.30;;;;;;5423010;26;20042;-70
2024/04/10 06:31:52;;;;;;;505.73;84.47;;;12.50;42.30;;;;;;5456082;26;20071;-71
2024/04/10 06:34:23;;;;;;;482.88;81.13;;;12.60;42.40;;;;;;5436206;26;19999;-70
2024/04/10 06:36:52;;;;;;;472.95;78.65;;;12.80;42.40;;;;;;5428118;26;20122;-70
2024/04/10 06:39:23;;;;;;;484.83;82.43;;;12.90;42.40;;;;;;5421068;26;20011;-71
2024/04/10 06:41:51;;;;;;;506.77;92.72;;;13.10;42.50;;;;;;5408632;26;21306;-68
2024/04/10 06:44:25;;;;;;;469.13;81.43;;;13.30;42.40;;;;;;5414090;26;20011;-69
2024/04/10 06:46:53;;;;;;;589.30;116.45;;;13.40;42.30;;;;;;5415313;26;20000;-68
2024/04/10 06:49:27;;;;;;;489.73;88.50;;;13.50;42.40;;;;;;5429899;26;20894;-68
2024/04/10 06:51:55;;;;;;;564.53;115.63;;;13.50;42.10;;;;;;5415547;26;20567;-71
2024/04/10 06:54:26;;;;;;;478.52;84.03;;;13.50;42.00;;;;;;5412067;26;20538;-68
2024/04/10 06:56:54;;;;;;;497.13;85.65;;;13.50;42.10;;;;;;5417233;26;20975;-67
2024/04/10 06:59:28;;;;;;;511.88;92.72;;;13.40;42.10;;;;;;5420391;26;20002;-67
2024/04/10 07:01:59;;;;;;;540.35;100.63;;;13.30;42.10;;;;;;5425891;26;20005;-66
2024/04/10 07:04:30;;;;;;;466.35;77.22;;;13.20;42.20;;;;;;5427496;26;20002;-67
2024/04/10 07:07:02;;;;;;;575.33;108.78;;;13.30;42.40;;;;;;5441218;26;19998;-71
2024/04/10 07:09:34;;;;;;;518.92;97.30;;;13.30;42.40;;;;;;5425122;26;20026;-67
2024/04/10 07:12:03;;;;;;;496.58;85.60;;;13.20;42.40;;;;;;5434114;26;20467;-67
2024/04/10 07:14:38;;;;;;;491.30;85.47;;;13.20;42.50;;;;;;5438664;26;20010;-69
2024/04/10 07:17:07;;;;;;;487.88;83.10;;;13.20;42.70;;;;;;5404785;26;20042;-68
2024/04/10 07:19:38;;;;;;;635.97;137.82;;;13.20;42.70;;;;;;5400795;26;20014;-68
2024/04/10 07:22:06;;;;;;;481.20;82.07;;;13.20;42.70;;;;;;5423489;26;19999;-68
2024/04/10 07:24:37;;;;;;;479.83;82.20;;;13.30;42.80;;;;;;5427782;26;20014;-68
2024/04/10 07:27:06;;;;;;;496.30;86.05;;;13.40;42.80;;;;;;5405506;26;20410;-66
2024/04/10 07:29:39;;;;;;;686.85;156.88;;;13.50;43.00;;;;;;5395251;26;20567;-66
2024/04/10 07:32:08;;;;;;;500.35;89.45;;;13.60;43.00;;;;;;5424187;26;20344;-62
2024/04/10 07:34:38;;;;;;;552.05;111.07;;;13.70;42.90;;;;;;5428088;25;20007;-62
2024/04/10 07:37:07;;;;;;;482.77;86.60;;;13.80;42.70;;;;;;5407096;26;19995;-62
2024/04/10 07:39:38;;;;;;;663.83;148.35;;;13.80;42.70;;;;;;5414773;26;19999;-62
2024/04/10 07:42:06;;;;;;;525.65;99.32;;;13.80;42.60;;;;;;5436961;26;20421;-60
2024/04/10 07:44:40;;;;;;;526.42;95.68;;;13.80;42.50;;;;;;5442672;26;19999;-61
2024/04/10 07:47:11;;;;;;;495.80;90.65;;;13.70;42.50;;;;;;5455098;25;19998;-61
2024/04/10 07:49:42;;;;;;;659.63;171.52;;;13.80;42.80;;;;;;5442465;25;20006;-61
2024/04/10 07:52:10;;;;;;;515.03;106.47;;;13.80;42.80;;;;;;5402608;26;20014;-61
2024/04/10 07:54:41;;;;;;;485.80;87.72;;;14.00;42.90;;;;;;5449075;26;20460;-63
2024/04/10 07:57:09;;;;;;;504.90;91.45;;;14.10;42.90;;;;;;5457551;25;20017;-63
2024/04/10 07:59:43;;;;;;;706.65;163.73;;;14.20;42.90;;;;;;5446741;26;20042;-63
2024/04/10 08:02:11;;;;;;;548.92;102.35;;;14.30;42.90;;;;;;5459508;26;21601;-64
2024/04/10 08:04:42;;;;;;;500.02;90.57;;;14.40;42.80;;;;;;5447802;26;20018;-66
2024/04/10 08:07:11;;;;;;;491.92;87.72;;;14.40;42.60;;;;;;5462039;26;20002;-65
2024/04/10 08:09:42;;;;;;;682.40;160.35;;;14.40;42.60;;;;;;5426716;25;20014;-65
2024/04/10 08:12:10;;;;;;;508.75;88.38;;;14.50;42.70;;;;;;5462993;26;20042;-66
2024/04/10 08:14:44;;;;;;;503.25;89.18;;;14.60;42.70;;;;;;5426539;26;20369;-66
2024/04/10 08:17:12;;;;;;;511.10;91.75;;;14.80;42.90;;;;;;5457028;25;20006;-64
2024/04/10 08:19:43;;;;;;;696.67;169.93;;;15.00;43.10;;;;;;5413018;26;20016;-65
2024/04/10 08:22:12;;;;;;;547.45;108.72;;;15.30;43.00;;;;;;5446643;25;20102;-64
2024/04/10 08:24:43;;;;;;;511.35;97.70;;;15.50;42.80;;;;;;5465987;26;20002;-64
2024/04/10 08:27:11;;;;;;;508.20;94.30;;;15.70;42.80;;;;;;5451853;26;20710;-64
2024/04/10 08:29:49;;;;;;;753.08;194.88;;;15.90;42.80;;;;;;5410514;26;20075;-67
2024/04/10 08:32:17;;;;;;;496.05;92.97;;;16.10;42.80;;;;;;5454416;26;20039;-70
2024/04/10 08:34:50;;;;;;;498.23;91.53;;;16.30;42.70;;;;;;5466795;26;20020;-69
2024/04/10 08:37:18;;;;;;;545.17;107.45;;;16.50;42.90;;;;;;5423153;26;20012;-70
2024/04/10 08:39:51;;;;;;;646.95;156.32;;;16.80;42.80;;;;;;5454693;26;20002;-72
2024/04/10 08:42:20;;;;;;;532.85;115.72;;;17.10;42.90;;;;;;5455751;26;20002;-71
2024/04/10 08:44:54;;;;;;;518.88;99.85;;;17.40;42.70;;;;;;5420168;26;20034;-71
2024/04/10 08:47:23;;;;;;;531.20;106.40;;;17.60;42.50;;;;;;5425638;26;20107;-70
2024/04/10 08:49:55;;;;;;;554.60;112.85;;;17.50;42.20;;;;;;5417067;26;22438;-69
2024/04/10 08:52:28;;;;;;;517.00;102.80;;;17.60;43.00;;;;;;5451234;26;19998;-66
2024/04/10 08:54:59;;;;;;;510.20;98.20;;;17.80;42.30;;;;;;5450379;25;20055;-67
2024/04/10 08:57:27;;;;;;;515.42;102.93;;;17.90;42.20;;;;;;5458038;26;20048;-65
2024/04/10 09:00:01;;;;;;;514.03;101.15;;;18.20;42.20;;;;;;5457993;26;20007;-68
2024/04/10 09:02:29;;;;;;;521.35;107.07;;;18.50;41.80;;;;;;5463973;26;20010;-67
2024/04/10 09:05:00;;;;;;;532.53;106.60;;;18.80;41.60;;;;;;5420688;26;20014;-66
2024/04/10 09:07:29;;;;;;;528.90;107.65;;;19.00;41.10;;;;;;5427195;26;20043;-66
2024/04/10 09:10:11;;;;;;;523.53;105.47;;;18.90;40.70;;;;;;5484089;25;20002;-65
2024/04/10 09:12:41;;;;;;;500.80;100.70;;;18.60;40.50;;;;;;5428322;26;19999;-64
2024/04/10 09:15:18;;;;;;;521.95;102.47;;;18.20;40.80;;;;;;5466586;25;20017;-65
2024/04/10 09:17:49;;;;;;;632.70;151.13;;;17.90;40.90;;;;;;5457595;25;20918;-65
2024/04/10 09:20:21;;;;;;;518.63;108.65;;;17.60;41.00;;;;;;5439387;26;20012;-64
2024/04/10 09:22:58;;;;;;;503.55;101.07;;;17.30;41.20;;;;;;5462816;26;19998;-61
2024/04/10 09:25:30;;;;;;;548.63;116.55;;;17.00;41.60;;;;;;5474051;25;20020;-61
2024/04/10 09:28:00;;;;;;;520.28;107.15;;;16.90;41.90;;;;;;5461764;25;19998;-62
2024/04/10 09:30:42;;;;;;;530.92;106.68;;;16.70;41.90;;;;;;5464648;25;20006;-64
2024/04/10 09:33:12;;;;;;;535.80;105.22;;;16.60;42.20;;;;;;5463182;26;19998;-63
2024/04/10 09:35:44;;;;;;;682.80;170.50;;;16.60;42.30;;;;;;5430872;25;19997;-63
2024/04/10 09:38:13;;;;;;;574.47;112.20;;;16.50;42.30;;;;;;5475636;25;20066;-66
2024/04/10 09:40:52;;;;;;;508.35;97.70;;;16.50;42.40;;;;;;5465165;26;20253;-68
2024/04/10 09:43:26;;;;;;;513.22;99.07;;;16.50;42.50;;;;;;5458463;26;19997;-68
2024/04/10 09:46:02;;;;;;;486.05;92.18;;;16.50;42.50;;;;;;5460311;26;20071;-65
2024/04/10 09:48:32;;;;;;;522.75;101.25;;;16.50;42.40;;;;;;5440618;26;20011;-65
2024/04/10 09:51:06;;;;;;;531.15;103.88;;;16.40;42.30;;;;;;5476403;26;20006;-65
2024/04/10 09:53:35;;;;;;;723.85;172.30;;;16.20;42.30;;;;;;5431778;26;20070;-66
2024/04/10 09:56:09;;;;;;;521.50;98.05;;;16.10;42.30;;;;;;5464474;26;20461;-67
2024/04/10 09:58:39;;;;;;;492.83;92.72;;;16.00;42.30;;;;;;5462195;26;20404;-73
2024/04/10 10:01:15;;;;;;;513.55;96.05;;;15.90;42.50;;;;;;5457966;26;20012;-72
2024/04/10 10:03:54;;;;;;;734.47;184.82;;;15.90;42.60;;;;;;5425154;25;20437;-71
2024/04/10 10:06:30;;;;;;;505.75;95.80;;;15.80;42.80;;;;;;5416237;26;19994;-69
2024/04/10 10:08:59;;;;;;;492.73;95.35;;;15.90;43.00;;;;;;5466477;26;20002;-66
2024/04/10 10:11:31;;;;;;;523.90;98.43;;;16.00;43.20;;;;;;5463180;26;20015;-65
2024/04/10 10:14:02;;;;;;;530.72;102.13;;;16.20;43.00;;;;;;5465623;25;20003;-65
2024/04/10 10:16:36;;;;;;;516.85;105.20;;;16.30;42.60;;;;;;5465487;26;20010;-64
2024/04/10 10:19:04;;;;;;;555.53;113.07;;;16.40;42.50;;;;;;5431782;26;20425;-63
2024/04/10 10:21:36;;;;;;;639.58;148.80;;;16.40;42.50;;;;;;5463134;26;19999;-62
2024/04/10 10:24:06;;;;;;;511.95;101.30;;;16.60;42.90;;;;;;5466889;26;20023;-63
2024/04/10 10:26:37;;;;;;;544.70;106.47;;;16.40;42.30;;;;;;5466485;26;20042;-63
2024/04/10 10:29:07;;;;;;;510.63;100.78;;;16.60;42.30;;;;;;5467302;26;20010;-63
2024/04/10 10:31:44;;;;;;;716.63;180.02;;;16.70;42.20;;;;;;5449548;25;19998;-64
2024/04/10 10:34:14;;;;;;;540.88;107.43;;;16.70;42.10;;;;;;5449992;26;19999;-63
2024/04/10 10:36:45;;;;;;;519.83;102.47;;;16.90;42.10;;;;;;5430554;26;20044;-66
2024/04/10 10:39:15;;;;;;;536.75;103.78;;;17.00;41.90;;;;;;5442999;26;20074;-67
2024/04/10 10:41:46;;;;;;;695.90;169.00;;;17.00;41.70;;;;;;5447687;25;20347;-69
2024/04/10 10:44:22;;;;;;;540.15;105.07;;;17.10;41.80;;;;;;5448644;25;20017;-65
2024/04/10 10:46:57;;;;;;;582.15;135.07;;;17.20;41.70;;;;;;5443608;25;20121;-66
2024/04/10 10:49:26;;;;;;;549.13;107.03;;;17.30;41.90;;;;;;5448702;25;19995;-66
2024/04/10 10:51:58;;;;;;;580.13;118.78;;;17.40;42.00;;;;;;5444992;25;22219;-66
2024/04/10 10:54:26;;;;;;;563.70;113.00;;;17.70;41.90;;;;;;5447341;25;20017;-65
2024/04/10 10:57:05;;;;;;;520.25;116.95;;;17.70;41.50;;;;;;5445902;25;20006;-66
2024/04/10 10:59:34;;;;;;;667.25;150.43;;;17.60;41.40;;;;;;5430965;25;20495;-66
2024/04/10 11:02:17;;;;;;;531.33;120.63;;;17.40;41.50;;;;;;5421090;26;19995;-67
2024/04/10 11:04:46;;;;;;;568.10;122.13;;;17.40;41.60;;;;;;5447205;26;20010;-69
2024/04/10 11:07:20;;;;;;;545.17;108.80;;;17.30;41.70;;;;;;5443650;26;20019;-65
2024/04/10 11:09:48;;;;;;;609.00;143.88;;;17.20;41.80;;;;;;5437035;25;20010;-67
2024/04/10 11:12:19;;;;;;;560.63;111.13;;;17.20;41.90;;;;;;5454942;26;20675;-67
2024/04/10 11:14:48;;;;;;;518.72;104.45;;;17.30;42.50;;;;;;5417269;26;20047;-65
2024/04/10 11:17:22;;;;;;;516.08;107.97;;;17.40;42.10;;;;;;5457372;26;20428;-65
2024/04/10 11:19:50;;;;;;;539.38;122.15;;;17.60;42.00;;;;;;5459772;25;20348;-66
2024/04/10 11:22:24;;;;;;;549.85;114.25;;;17.70;41.80;;;;;;5449833;26;20006;-66
2024/04/10 11:24:53;;;;;;;593.40;121.10;;;17.60;41.50;;;;;;5437955;25;20479;-65
2024/04/10 11:27:24;;;;;;;553.80;116.88;;;17.50;41.60;;;;;;5450154;25;20141;-64
2024/04/10 11:29:53;;;;;;;578.78;117.90;;;17.10;41.60;;;;;;5431944;25;20018;-65
2024/04/10 11:32:27;;;;;;;546.80;116.20;;;16.70;41.90;;;;;;5421001;25;20043;-65
2024/04/10 11:34:55;;;;;;;555.15;121.97;;;16.40;42.20;;;;;;5447254;26;20530;-63
2024/04/10 11:37:26;;;;;;;532.67;120.55;;;16.20;42.50;;;;;;5450434;26;20012;-64
2024/04/10 11:39:57;;;;;;;511.52;112.43;;;16.00;42.60;;;;;;5451586;26;20006;-65
2024/04/10 11:42:29;;;;;;;550.58;123.72;;;16.00;42.80;;;;;;5449552;26;20015;-65
2024/04/10 11:44:58;;;;;;;564.95;152.70;;;15.90;42.90;;;;;;5441958;26;20061;-65
2024/04/10 11:47:35;;;;;;;541.35;116.60;;;16.00;43.20;;;;;;5450222;26;20013;-65
2024/04/10 11:50:04;;;;;;;538.28;107.15;;;16.00;43.10;;;;;;5448859;25;20010;-65
2024/04/10 11:52:36;;;;;;;512.40;119.47;;;16.00;43.00;;;;;;5444860;26;20013;-65
2024/04/10 11:55:07;;;;;;;540.55;112.32;;;16.00;43.10;;;;;;5456726;26;20006;-64
2024/04/10 11:57:41;;;;;;;669.92;178.95;;;16.00;43.00;;;;;;5466713;26;19998;-65
2024/04/10 12:00:10;;;;;;;572.55;151.02;;;15.90;43.10;;;;;;5454369;26;20002;-67
2024/04/10 12:02:45;;;;;;;556.47;114.47;;;15.90;43.20;;;;;;5481711;25;19994;-65
2024/04/10 12:05:14;;;;;;;540.97;106.45;;;16.00;43.30;;;;;;5429347;26;20074;-63
2024/04/10 12:07:48;;;;;;;712.70;185.05;;;16.00;43.30;;;;;;5455403;26;19998;-66
2024/04/10 12:10:16;;;;;;;525.90;106.35;;;16.10;43.40;;;;;;5459284;26;20013;-62
2024/04/10 12:12:50;;;;;;;539.22;110.40;;;16.20;43.50;;;;;;5450789;26;20447;-64
2024/04/10 12:15:19;;;;;;;538.35;108.03;;;16.50;43.50;;;;;;5409478;26;20005;-62
2024/04/10 12:17:53;;;;;;;727.35;182.55;;;16.70;43.30;;;;;;5444091;26;20004;-65
2024/04/10 12:20:23;;;;;;;531.92;110.00;;;16.80;43.10;;;;;;5445081;26;20021;-66
2024/04/10 12:22:54;;;;;;;510.75;107.57;;;16.80;43.70;;;;;;5449056;26;20003;-66
2024/04/10 12:25:23;;;;;;;572.78;117.93;;;16.90;43.10;;;;;;5435009;26;20003;-65
2024/04/10 12:27:54;;;;;;;554.45;120.47;;;17.00;43.10;;;;;;5453952;25;20006;-66
2024/04/10 12:30:22;;;;;;;520.47;106.57;;;17.10;43.00;;;;;;5449868;26;20014;-65
2024/04/10 12:32:56;;;;;;;528.92;107.50;;;17.20;42.80;;;;;;5431668;26;20092;-65
2024/04/10 12:38:14;;;;;;;698.67;163.55;;;17.10;42.70;;;;;;5437755;25;20077;-66